sensor_id;sensor_type;location;lat;lon;timestamp;P1;durP1;ratioP1;P2;durP2;ratioP2
84672;SDS011;74899;42.256;23.284;2024-01-06T00:00:05;6.05;;;3.65;;
84672;SDS011;74899;42.256;23.284;2024-01-06T00:02:33;6.07;;;4.03;;
84672;SDS011;74899;42.256;23.284;2024-01-06T00:04:59;4.97;;;4.22;;
84672;SDS011;74899;42.256;23.284;2024-01-06T00:07:24;3.20;;;2.38;;
84672;SDS011;74899;42.256;23.284;2024-01-06T00:09:52;4.45;;;2.15;;
84672;SDS011;74899;42.256;23.284;2024-01-06T00:12:19;5.53;;;4.65;;
84672;SDS011;74899;42.256;23.284;2024-01-06T00:14:45;11.27;;;7.10;;
84672;SDS011;74899;42.256;23.284;2024-01-06T00:17:12;9.63;;;6.60;;
84672;SDS011;74899;42.256;23.284;2024-01-06T00:19:39;10.07;;;6.32;;
84672;SDS011;74899;42.256;23.284;2024-01-06T00:22:17;11.55;;;5.63;;
84672;SDS011;74899;42.256;23.284;2024-01-06T00:24:45;8.90;;;6.13;;
84672;SDS011;74899;42.256;23.284;2024-01-06T00:27:12;7.15;;;6.32;;
84672;SDS011;74899;42.256;23.284;2024-01-06T00:29:38;11.75;;;5.38;;
84672;SDS011;74899;42.256;23.284;2024-01-06T00:32:05;8.02;;;5.72;;
84672;SDS011;74899;42.256;23.284;2024-01-06T00:34:33;7.85;;;5.03;;
84672;SDS011;74899;42.256;23.284;2024-01-06T00:36:59;6.93;;;5.40;;
84672;SDS011;74899;42.256;23.284;2024-01-06T00:39:27;7.50;;;6.05;;
84672;SDS011;74899;42.256;23.284;2024-01-06T00:41:53;6.70;;;4.72;;
84672;SDS011;74899;42.256;23.284;2024-01-06T00:44:18;9.13;;;5.05;;
84672;SDS011;74899;42.256;23.284;2024-01-06T00:46:46;5.28;;;4.70;;
84672;SDS011;74899;42.256;23.284;2024-01-06T00:49:12;10.90;;;6.60;;
84672;SDS011;74899;42.256;23.284;2024-01-06T00:51:38;10.32;;;5.57;;
84672;SDS011;74899;42.256;23.284;2024-01-06T00:54:06;13.70;;;7.38;;
84672;SDS011;74899;42.256;23.284;2024-01-06T00:56:33;17.48;;;7.45;;
84672;SDS011;74899;42.256;23.284;2024-01-06T00:58:59;15.82;;;7.47;;
84672;SDS011;74899;42.256;23.284;2024-01-06T01:01:24;12.63;;;7.13;;
84672;SDS011;74899;42.256;23.284;2024-01-06T01:03:50;13.63;;;5.97;;
84672;SDS011;74899;42.256;23.284;2024-01-06T01:06:17;7.25;;;5.72;;
84672;SDS011;74899;42.256;23.284;2024-01-06T01:08:43;9.82;;;5.93;;
84672;SDS011;74899;42.256;23.284;2024-01-06T01:11:10;11.18;;;6.00;;
84672;SDS011;74899;42.256;23.284;2024-01-06T01:13:37;10.05;;;5.40;;
84672;SDS011;74899;42.256;23.284;2024-01-06T01:16:04;6.82;;;3.60;;
84672;SDS011;74899;42.256;23.284;2024-01-06T01:18:32;7.78;;;2.63;;
84672;SDS011;74899;42.256;23.284;2024-01-06T01:20:57;4.18;;;3.00;;
84672;SDS011;74899;42.256;23.284;2024-01-06T01:23:23;1.20;;;1.20;;
84672;SDS011;74899;42.256;23.284;2024-01-06T01:25:49;4.75;;;3.15;;
84672;SDS011;74899;42.256;23.284;2024-01-06T01:28:16;11.85;;;6.25;;
84672;SDS011;74899;42.256;23.284;2024-01-06T01:30:42;6.90;;;2.75;;
84672;SDS011;74899;42.256;23.284;2024-01-06T01:33:08;3.05;;;2.40;;
84672;SDS011;74899;42.256;23.284;2024-01-06T01:35:34;3.00;;;2.10;;
84672;SDS011;74899;42.256;23.284;2024-01-06T01:38:00;2.38;;;2.25;;
84672;SDS011;74899;42.256;23.284;2024-01-06T01:40:26;2.63;;;2.40;;
84672;SDS011;74899;42.256;23.284;2024-01-06T01:42:53;2.97;;;2.70;;
84672;SDS011;74899;42.256;23.284;2024-01-06T01:45:19;3.72;;;2.90;;
84672;SDS011;74899;42.256;23.284;2024-01-06T01:47:45;9.45;;;5.50;;
84672;SDS011;74899;42.256;23.284;2024-01-06T01:50:12;3.72;;;3.38;;
84672;SDS011;74899;42.256;23.284;2024-01-06T01:52:41;6.60;;;4.18;;
84672;SDS011;74899;42.256;23.284;2024-01-06T01:55:07;6.13;;;3.45;;
84672;SDS011;74899;42.256;23.284;2024-01-06T01:57:33;6.40;;;3.80;;
84672;SDS011;74899;42.256;23.284;2024-01-06T02:00:00;6.95;;;5.53;;
84672;SDS011;74899;42.256;23.284;2024-01-06T02:02:26;19.58;;;8.07;;
84672;SDS011;74899;42.256;23.284;2024-01-06T02:04:55;8.93;;;5.38;;
84672;SDS011;74899;42.256;23.284;2024-01-06T02:07:28;2.85;;;2.65;;
84672;SDS011;74899;42.256;23.284;2024-01-06T02:10:00;3.30;;;2.25;;
84672;SDS011;74899;42.256;23.284;2024-01-06T02:12:26;6.00;;;3.92;;
84672;SDS011;74899;42.256;23.284;2024-01-06T02:14:52;25.55;;;9.93;;
84672;SDS011;74899;42.256;23.284;2024-01-06T02:17:18;21.23;;;8.85;;
84672;SDS011;74899;42.256;23.284;2024-01-06T02:19:44;17.25;;;7.38;;
84672;SDS011;74899;42.256;23.284;2024-01-06T02:22:10;8.65;;;5.50;;
84672;SDS011;74899;42.256;23.284;2024-01-06T02:24:36;8.15;;;5.22;;
84672;SDS011;74899;42.256;23.284;2024-01-06T02:27:02;10.60;;;5.18;;
84672;SDS011;74899;42.256;23.284;2024-01-06T02:29:29;8.93;;;5.65;;
84672;SDS011;74899;42.256;23.284;2024-01-06T02:31:56;18.23;;;9.32;;
84672;SDS011;74899;42.256;23.284;2024-01-06T02:34:22;14.57;;;7.95;;
84672;SDS011;74899;42.256;23.284;2024-01-06T02:36:49;11.80;;;7.50;;
84672;SDS011;74899;42.256;23.284;2024-01-06T02:39:15;12.40;;;6.85;;
84672;SDS011;74899;42.256;23.284;2024-01-06T02:41:42;12.43;;;7.00;;
84672;SDS011;74899;42.256;23.284;2024-01-06T02:44:08;4.38;;;2.97;;
84672;SDS011;74899;42.256;23.284;2024-01-06T02:46:34;5.00;;;2.92;;
84672;SDS011;74899;42.256;23.284;2024-01-06T02:49:00;4.40;;;3.17;;
84672;SDS011;74899;42.256;23.284;2024-01-06T02:51:26;4.60;;;3.78;;
84672;SDS011;74899;42.256;23.284;2024-01-06T02:53:52;4.78;;;4.45;;
84672;SDS011;74899;42.256;23.284;2024-01-06T02:56:19;5.88;;;4.18;;
84672;SDS011;74899;42.256;23.284;2024-01-06T02:58:45;4.50;;;3.53;;
84672;SDS011;74899;42.256;23.284;2024-01-06T03:01:11;3.63;;;3.10;;
84672;SDS011;74899;42.256;23.284;2024-01-06T03:03:37;3.92;;;3.55;;
84672;SDS011;74899;42.256;23.284;2024-01-06T03:06:04;3.65;;;3.33;;
84672;SDS011;74899;42.256;23.284;2024-01-06T03:08:32;3.42;;;2.85;;
84672;SDS011;74899;42.256;23.284;2024-01-06T03:11:04;7.97;;;3.63;;
84672;SDS011;74899;42.256;23.284;2024-01-06T03:13:31;5.72;;;4.32;;
84672;SDS011;74899;42.256;23.284;2024-01-06T03:15:57;18.58;;;7.53;;
84672;SDS011;74899;42.256;23.284;2024-01-06T03:18:26;4.10;;;3.45;;
84672;SDS011;74899;42.256;23.284;2024-01-06T03:20:53;4.88;;;4.53;;
84672;SDS011;74899;42.256;23.284;2024-01-06T03:23:20;2.42;;;2.22;;
84672;SDS011;74899;42.256;23.284;2024-01-06T03:25:46;2.88;;;2.65;;
84672;SDS011;74899;42.256;23.284;2024-01-06T03:28:12;2.70;;;2.20;;
84672;SDS011;74899;42.256;23.284;2024-01-06T03:30:38;5.97;;;5.40;;
84672;SDS011;74899;42.256;23.284;2024-01-06T03:33:05;5.40;;;4.28;;
84672;SDS011;74899;42.256;23.284;2024-01-06T03:35:32;3.55;;;3.33;;
84672;SDS011;74899;42.256;23.284;2024-01-06T03:37:58;8.35;;;4.72;;
84672;SDS011;74899;42.256;23.284;2024-01-06T03:40:23;7.35;;;5.20;;
84672;SDS011;74899;42.256;23.284;2024-01-06T03:42:50;7.93;;;4.40;;
84672;SDS011;74899;42.256;23.284;2024-01-06T03:45:17;17.75;;;8.57;;
84672;SDS011;74899;42.256;23.284;2024-01-06T03:47:43;16.48;;;10.32;;
84672;SDS011;74899;42.256;23.284;2024-01-06T03:50:09;12.98;;;7.63;;
84672;SDS011;74899;42.256;23.284;2024-01-06T03:52:35;3.13;;;2.83;;
84672;SDS011;74899;42.256;23.284;2024-01-06T03:55:01;15.80;;;7.88;;
84672;SDS011;74899;42.256;23.284;2024-01-06T03:57:29;9.73;;;5.43;;
84672;SDS011;74899;42.256;23.284;2024-01-06T03:59:55;4.28;;;2.92;;
84672;SDS011;74899;42.256;23.284;2024-01-06T04:02:21;2.67;;;2.20;;
84672;SDS011;74899;42.256;23.284;2024-01-06T04:04:47;2.97;;;2.33;;
84672;SDS011;74899;42.256;23.284;2024-01-06T04:07:13;4.45;;;4.13;;
84672;SDS011;74899;42.256;23.284;2024-01-06T04:09:41;38.22;;;19.33;;
84672;SDS011;74899;42.256;23.284;2024-01-06T04:12:08;8.63;;;7.32;;
84672;SDS011;74899;42.256;23.284;2024-01-06T04:14:34;5.40;;;4.47;;
84672;SDS011;74899;42.256;23.284;2024-01-06T04:17:00;5.53;;;5.05;;
84672;SDS011;74899;42.256;23.284;2024-01-06T04:19:26;5.68;;;5.10;;
84672;SDS011;74899;42.256;23.284;2024-01-06T04:21:52;13.70;;;6.38;;
84672;SDS011;74899;42.256;23.284;2024-01-06T04:24:20;71.43;;;28.13;;
84672;SDS011;74899;42.256;23.284;2024-01-06T04:26:47;78.00;;;27.67;;
84672;SDS011;74899;42.256;23.284;2024-01-06T04:29:15;9.70;;;5.65;;
84672;SDS011;74899;42.256;23.284;2024-01-06T04:31:43;8.68;;;5.13;;
84672;SDS011;74899;42.256;23.284;2024-01-06T04:34:10;10.82;;;8.98;;
84672;SDS011;74899;42.256;23.284;2024-01-06T04:36:36;16.13;;;11.43;;
84672;SDS011;74899;42.256;23.284;2024-01-06T04:39:02;12.75;;;9.52;;
84672;SDS011;74899;42.256;23.284;2024-01-06T04:41:28;26.85;;;14.60;;
84672;SDS011;74899;42.256;23.284;2024-01-06T04:43:54;41.63;;;19.58;;
84672;SDS011;74899;42.256;23.284;2024-01-06T04:46:21;43.25;;;19.98;;
84672;SDS011;74899;42.256;23.284;2024-01-06T04:48:47;43.63;;;19.20;;
84672;SDS011;74899;42.256;23.284;2024-01-06T04:51:13;24.40;;;15.70;;
84672;SDS011;74899;42.256;23.284;2024-01-06T04:53:40;20.98;;;13.02;;
84672;SDS011;74899;42.256;23.284;2024-01-06T04:56:07;22.95;;;12.73;;
84672;SDS011;74899;42.256;23.284;2024-01-06T04:58:33;32.88;;;15.73;;
84672;SDS011;74899;42.256;23.284;2024-01-06T05:01:00;31.90;;;19.85;;
84672;SDS011;74899;42.256;23.284;2024-01-06T05:03:26;25.65;;;13.40;;
84672;SDS011;74899;42.256;23.284;2024-01-06T05:05:55;22.95;;;13.45;;
84672;SDS011;74899;42.256;23.284;2024-01-06T05:08:21;27.77;;;14.38;;
84672;SDS011;74899;42.256;23.284;2024-01-06T05:10:48;32.80;;;14.07;;
84672;SDS011;74899;42.256;23.284;2024-01-06T05:13:15;28.33;;;13.52;;
84672;SDS011;74899;42.256;23.284;2024-01-06T05:15:45;24.30;;;13.40;;
84672;SDS011;74899;42.256;23.284;2024-01-06T05:18:11;18.33;;;12.65;;
84672;SDS011;74899;42.256;23.284;2024-01-06T05:20:37;34.50;;;18.73;;
84672;SDS011;74899;42.256;23.284;2024-01-06T05:23:06;37.85;;;18.02;;
84672;SDS011;74899;42.256;23.284;2024-01-06T05:25:32;39.65;;;21.52;;
84672;SDS011;74899;42.256;23.284;2024-01-06T05:27:58;29.45;;;16.30;;
84672;SDS011;74899;42.256;23.284;2024-01-06T05:30:24;21.67;;;13.27;;
84672;SDS011;74899;42.256;23.284;2024-01-06T05:32:53;18.73;;;11.07;;
84672;SDS011;74899;42.256;23.284;2024-01-06T05:35:21;13.38;;;9.32;;
84672;SDS011;74899;42.256;23.284;2024-01-06T05:37:47;20.55;;;10.50;;
84672;SDS011;74899;42.256;23.284;2024-01-06T05:40:13;29.92;;;16.08;;
84672;SDS011;74899;42.256;23.284;2024-01-06T05:42:40;18.00;;;9.82;;
84672;SDS011;74899;42.256;23.284;2024-01-06T05:45:10;3.97;;;3.65;;
84672;SDS011;74899;42.256;23.284;2024-01-06T05:47:38;6.43;;;5.68;;
84672;SDS011;74899;42.256;23.284;2024-01-06T05:50:05;21.65;;;12.55;;
84672;SDS011;74899;42.256;23.284;2024-01-06T05:52:34;25.48;;;14.27;;
84672;SDS011;74899;42.256;23.284;2024-01-06T05:55:00;29.80;;;16.20;;
84672;SDS011;74899;42.256;23.284;2024-01-06T05:57:29;29.38;;;17.00;;
84672;SDS011;74899;42.256;23.284;2024-01-06T05:59:55;34.55;;;17.70;;
84672;SDS011;74899;42.256;23.284;2024-01-06T06:02:21;39.30;;;18.48;;
84672;SDS011;74899;42.256;23.284;2024-01-06T06:04:47;45.15;;;21.05;;
84672;SDS011;74899;42.256;23.284;2024-01-06T06:07:13;39.25;;;21.55;;
84672;SDS011;74899;42.256;23.284;2024-01-06T06:09:40;54.63;;;26.20;;
84672;SDS011;74899;42.256;23.284;2024-01-06T06:12:06;49.60;;;27.48;;
84672;SDS011;74899;42.256;23.284;2024-01-06T06:14:33;50.67;;;25.83;;
84672;SDS011;74899;42.256;23.284;2024-01-06T06:17:00;62.95;;;31.38;;
84672;SDS011;74899;42.256;23.284;2024-01-06T06:19:28;60.25;;;30.55;;
84672;SDS011;74899;42.256;23.284;2024-01-06T06:21:54;76.55;;;34.10;;
84672;SDS011;74899;42.256;23.284;2024-01-06T06:24:20;66.10;;;31.63;;
84672;SDS011;74899;42.256;23.284;2024-01-06T06:26:46;351.88;;;122.78;;
84672;SDS011;74899;42.256;23.284;2024-01-06T06:29:13;108.68;;;43.90;;
84672;SDS011;74899;42.256;23.284;2024-01-06T06:31:41;30.20;;;16.33;;
84672;SDS011;74899;42.256;23.284;2024-01-06T06:34:08;328.20;;;152.25;;
84672;SDS011;74899;42.256;23.284;2024-01-06T06:36:34;187.43;;;85.30;;
84672;SDS011;74899;42.256;23.284;2024-01-06T06:39:01;75.20;;;31.90;;
84672;SDS011;74899;42.256;23.284;2024-01-06T06:41:30;59.47;;;26.60;;
84672;SDS011;74899;42.256;23.284;2024-01-06T06:43:57;46.15;;;24.65;;
84672;SDS011;74899;42.256;23.284;2024-01-06T06:46:24;56.33;;;28.25;;
84672;SDS011;74899;42.256;23.284;2024-01-06T06:48:50;55.13;;;27.35;;
84672;SDS011;74899;42.256;23.284;2024-01-06T06:51:18;48.72;;;27.27;;
84672;SDS011;74899;42.256;23.284;2024-01-06T06:53:44;64.13;;;32.95;;
84672;SDS011;74899;42.256;23.284;2024-01-06T06:56:10;62.03;;;30.02;;
84672;SDS011;74899;42.256;23.284;2024-01-06T06:58:36;45.67;;;25.05;;
84672;SDS011;74899;42.256;23.284;2024-01-06T07:01:02;32.78;;;18.10;;
84672;SDS011;74899;42.256;23.284;2024-01-06T07:03:30;37.50;;;18.65;;
84672;SDS011;74899;42.256;23.284;2024-01-06T07:05:56;39.58;;;21.77;;
84672;SDS011;74899;42.256;23.284;2024-01-06T07:08:23;38.63;;;22.25;;
84672;SDS011;74899;42.256;23.284;2024-01-06T07:10:49;67.93;;;31.83;;
84672;SDS011;74899;42.256;23.284;2024-01-06T07:13:15;54.13;;;27.40;;
84672;SDS011;74899;42.256;23.284;2024-01-06T07:15:42;35.30;;;19.65;;
84672;SDS011;74899;42.256;23.284;2024-01-06T07:18:08;149.93;;;58.38;;
84672;SDS011;74899;42.256;23.284;2024-01-06T07:20:35;122.03;;;51.05;;
84672;SDS011;74899;42.256;23.284;2024-01-06T07:23:01;75.13;;;33.53;;
84672;SDS011;74899;42.256;23.284;2024-01-06T07:25:31;46.53;;;25.80;;
84672;SDS011;74899;42.256;23.284;2024-01-06T07:27:57;44.13;;;23.55;;
84672;SDS011;74899;42.256;23.284;2024-01-06T07:30:23;80.63;;;38.50;;
84672;SDS011;74899;42.256;23.284;2024-01-06T07:32:49;90.00;;;44.05;;
84672;SDS011;74899;42.256;23.284;2024-01-06T07:35:17;178.45;;;71.35;;
84672;SDS011;74899;42.256;23.284;2024-01-06T07:37:45;123.47;;;55.97;;
84672;SDS011;74899;42.256;23.284;2024-01-06T07:40:10;113.13;;;49.88;;
84672;SDS011;74899;42.256;23.284;2024-01-06T07:42:42;64.10;;;32.28;;
84672;SDS011;74899;42.256;23.284;2024-01-06T07:45:15;63.10;;;32.17;;
84672;SDS011;74899;42.256;23.284;2024-01-06T07:47:42;49.28;;;27.63;;
84672;SDS011;74899;42.256;23.284;2024-01-06T07:50:08;69.30;;;32.35;;
84672;SDS011;74899;42.256;23.284;2024-01-06T07:52:34;123.70;;;53.78;;
84672;SDS011;74899;42.256;23.284;2024-01-06T07:55:00;123.45;;;51.33;;
84672;SDS011;74899;42.256;23.284;2024-01-06T07:57:32;71.90;;;39.05;;
84672;SDS011;74899;42.256;23.284;2024-01-06T07:59:58;99.60;;;47.03;;
84672;SDS011;74899;42.256;23.284;2024-01-06T08:02:25;121.72;;;52.95;;
84672;SDS011;74899;42.256;23.284;2024-01-06T08:04:52;118.72;;;48.90;;
84672;SDS011;74899;42.256;23.284;2024-01-06T08:07:19;112.47;;;48.15;;
84672;SDS011;74899;42.256;23.284;2024-01-06T08:09:45;77.63;;;39.08;;
84672;SDS011;74899;42.256;23.284;2024-01-06T08:12:12;82.47;;;38.30;;
84672;SDS011;74899;42.256;23.284;2024-01-06T08:14:41;71.15;;;31.80;;
84672;SDS011;74899;42.256;23.284;2024-01-06T08:17:08;64.15;;;31.70;;
84672;SDS011;74899;42.256;23.284;2024-01-06T08:19:35;53.42;;;28.30;;
84672;SDS011;74899;42.256;23.284;2024-01-06T08:22:02;158.63;;;68.60;;
84672;SDS011;74899;42.256;23.284;2024-01-06T08:24:28;41.47;;;21.52;;
84672;SDS011;74899;42.256;23.284;2024-01-06T08:26:54;20.38;;;13.18;;
84672;SDS011;74899;42.256;23.284;2024-01-06T08:29:20;52.45;;;28.98;;
84672;SDS011;74899;42.256;23.284;2024-01-06T08:31:46;54.97;;;26.50;;
84672;SDS011;74899;42.256;23.284;2024-01-06T08:34:12;70.28;;;36.95;;
84672;SDS011;74899;42.256;23.284;2024-01-06T08:36:38;62.08;;;33.00;;
84672;SDS011;74899;42.256;23.284;2024-01-06T08:39:06;49.63;;;26.48;;
84672;SDS011;74899;42.256;23.284;2024-01-06T08:41:33;49.20;;;25.17;;
84672;SDS011;74899;42.256;23.284;2024-01-06T08:43:59;16.23;;;11.43;;
84672;SDS011;74899;42.256;23.284;2024-01-06T08:46:27;35.70;;;21.95;;
84672;SDS011;74899;42.256;23.284;2024-01-06T08:48:56;34.90;;;20.65;;
84672;SDS011;74899;42.256;23.284;2024-01-06T08:51:22;35.28;;;19.10;;
84672;SDS011;74899;42.256;23.284;2024-01-06T08:53:49;37.50;;;20.83;;
84672;SDS011;74899;42.256;23.284;2024-01-06T08:56:15;13.75;;;9.38;;
84672;SDS011;74899;42.256;23.284;2024-01-06T08:58:45;17.33;;;10.25;;
84672;SDS011;74899;42.256;23.284;2024-01-06T09:01:13;25.55;;;13.13;;
84672;SDS011;74899;42.256;23.284;2024-01-06T09:03:42;8.05;;;7.25;;
84672;SDS011;74899;42.256;23.284;2024-01-06T09:06:09;21.85;;;11.40;;
84672;SDS011;74899;42.256;23.284;2024-01-06T09:08:36;10.80;;;8.07;;
84672;SDS011;74899;42.256;23.284;2024-01-06T09:11:03;6.85;;;4.68;;
84672;SDS011;74899;42.256;23.284;2024-01-06T09:13:30;20.90;;;8.07;;
84672;SDS011;74899;42.256;23.284;2024-01-06T09:15:58;116.35;;;39.22;;
84672;SDS011;74899;42.256;23.284;2024-01-06T09:18:26;10.95;;;9.60;;
84672;SDS011;74899;42.256;23.284;2024-01-06T09:20:53;7.65;;;6.40;;
84672;SDS011;74899;42.256;23.284;2024-01-06T09:23:19;32.35;;;11.50;;
84672;SDS011;74899;42.256;23.284;2024-01-06T09:25:46;30.75;;;12.50;;
84672;SDS011;74899;42.256;23.284;2024-01-06T09:28:15;5.63;;;4.32;;
84672;SDS011;74899;42.256;23.284;2024-01-06T09:30:46;5.78;;;4.68;;
84672;SDS011;74899;42.256;23.284;2024-01-06T09:33:12;8.10;;;4.30;;
84672;SDS011;74899;42.256;23.284;2024-01-06T09:35:41;5.45;;;3.65;;
84672;SDS011;74899;42.256;23.284;2024-01-06T09:38:09;5.45;;;2.17;;
84672;SDS011;74899;42.256;23.284;2024-01-06T09:40:35;7.05;;;4.18;;
84672;SDS011;74899;42.256;23.284;2024-01-06T09:43:12;7.60;;;4.88;;
84672;SDS011;74899;42.256;23.284;2024-01-06T09:45:38;17.30;;;7.82;;
84672;SDS011;74899;42.256;23.284;2024-01-06T09:48:10;6.80;;;4.15;;
84672;SDS011;74899;42.256;23.284;2024-01-06T09:50:43;5.90;;;4.50;;
84672;SDS011;74899;42.256;23.284;2024-01-06T09:53:12;4.65;;;1.83;;
84672;SDS011;74899;42.256;23.284;2024-01-06T09:55:45;2.10;;;2.00;;
84672;SDS011;74899;42.256;23.284;2024-01-06T09:58:18;57.50;;;25.67;;
84672;SDS011;74899;42.256;23.284;2024-01-06T10:00:49;3.85;;;3.45;;
84672;SDS011;74899;42.256;23.284;2024-01-06T10:03:16;1.98;;;1.88;;
84672;SDS011;74899;42.256;23.284;2024-01-06T10:05:42;10.70;;;6.65;;
84672;SDS011;74899;42.256;23.284;2024-01-06T10:08:08;24.15;;;14.43;;
84672;SDS011;74899;42.256;23.284;2024-01-06T10:10:35;6.85;;;5.00;;
84672;SDS011;74899;42.256;23.284;2024-01-06T10:13:01;31.50;;;15.40;;
84672;SDS011;74899;42.256;23.284;2024-01-06T10:15:28;14.63;;;8.27;;
84672;SDS011;74899;42.256;23.284;2024-01-06T10:17:54;3.70;;;3.42;;
84672;SDS011;74899;42.256;23.284;2024-01-06T10:20:21;3.55;;;3.25;;
84672;SDS011;74899;42.256;23.284;2024-01-06T10:22:47;4.13;;;3.20;;
84672;SDS011;74899;42.256;23.284;2024-01-06T10:25:14;2.78;;;2.58;;
84672;SDS011;74899;42.256;23.284;2024-01-06T10:27:41;2.25;;;2.15;;
84672;SDS011;74899;42.256;23.284;2024-01-06T10:30:08;3.28;;;2.97;;
84672;SDS011;74899;42.256;23.284;2024-01-06T10:32:34;3.60;;;3.30;;
84672;SDS011;74899;42.256;23.284;2024-01-06T10:35:02;6.50;;;4.53;;
84672;SDS011;74899;42.256;23.284;2024-01-06T10:37:32;26.75;;;13.18;;
84672;SDS011;74899;42.256;23.284;2024-01-06T10:40:08;6.30;;;5.72;;
84672;SDS011;74899;42.256;23.284;2024-01-06T10:42:36;14.55;;;5.45;;
84672;SDS011;74899;42.256;23.284;2024-01-06T10:45:07;8.23;;;4.43;;
84672;SDS011;74899;42.256;23.284;2024-01-06T10:47:35;5.00;;;3.95;;
84672;SDS011;74899;42.256;23.284;2024-01-06T10:50:02;5.15;;;4.60;;
84672;SDS011;74899;42.256;23.284;2024-01-06T10:52:34;4.80;;;4.40;;
84672;SDS011;74899;42.256;23.284;2024-01-06T10:55:01;10.30;;;6.15;;
84672;SDS011;74899;42.256;23.284;2024-01-06T10:57:29;20.08;;;7.82;;
84672;SDS011;74899;42.256;23.284;2024-01-06T10:59:57;6.00;;;4.70;;
84672;SDS011;74899;42.256;23.284;2024-01-06T11:02:25;26.73;;;8.98;;
84672;SDS011;74899;42.256;23.284;2024-01-06T11:04:54;22.48;;;7.05;;
84672;SDS011;74899;42.256;23.284;2024-01-06T11:07:21;5.80;;;4.43;;
84672;SDS011;74899;42.256;23.284;2024-01-06T11:10:04;4.05;;;3.30;;
84672;SDS011;74899;42.256;23.284;2024-01-06T11:12:43;12.40;;;6.45;;
84672;SDS011;74899;42.256;23.284;2024-01-06T11:15:10;5.32;;;4.75;;
84672;SDS011;74899;42.256;23.284;2024-01-06T11:17:56;7.85;;;5.32;;
84672;SDS011;74899;42.256;23.284;2024-01-06T11:20:24;5.38;;;3.22;;
84672;SDS011;74899;42.256;23.284;2024-01-06T11:22:53;5.57;;;4.18;;
84672;SDS011;74899;42.256;23.284;2024-01-06T11:25:20;8.43;;;5.75;;
84672;SDS011;74899;42.256;23.284;2024-01-06T11:27:48;3.28;;;3.08;;
84672;SDS011;74899;42.256;23.284;2024-01-06T11:30:22;3.50;;;3.25;;
84672;SDS011;74899;42.256;23.284;2024-01-06T11:33:07;3.63;;;2.40;;
84672;SDS011;74899;42.256;23.284;2024-01-06T11:35:36;9.20;;;3.80;;
84672;SDS011;74899;42.256;23.284;2024-01-06T11:38:02;3.60;;;3.13;;
84672;SDS011;74899;42.256;23.284;2024-01-06T11:40:36;3.97;;;3.22;;
84672;SDS011;74899;42.256;23.284;2024-01-06T11:43:04;4.50;;;3.05;;
84672;SDS011;74899;42.256;23.284;2024-01-06T11:45:34;5.07;;;3.78;;
84672;SDS011;74899;42.256;23.284;2024-01-06T11:48:01;4.40;;;3.40;;
84672;SDS011;74899;42.256;23.284;2024-01-06T11:50:36;3.08;;;2.85;;
84672;SDS011;74899;42.256;23.284;2024-01-06T11:53:05;11.10;;;3.92;;
84672;SDS011;74899;42.256;23.284;2024-01-06T11:55:33;20.42;;;8.60;;
84672;SDS011;74899;42.256;23.284;2024-01-06T11:58:00;4.55;;;3.30;;
84672;SDS011;74899;42.256;23.284;2024-01-06T12:00:29;5.32;;;3.95;;
84672;SDS011;74899;42.256;23.284;2024-01-06T12:02:56;9.68;;;6.38;;
84672;SDS011;74899;42.256;23.284;2024-01-06T12:05:24;8.38;;;5.32;;
84672;SDS011;74899;42.256;23.284;2024-01-06T12:08:02;3.63;;;3.33;;
84672;SDS011;74899;42.256;23.284;2024-01-06T12:10:39;4.20;;;2.83;;
84672;SDS011;74899;42.256;23.284;2024-01-06T12:13:06;2.65;;;2.45;;
84672;SDS011;74899;42.256;23.284;2024-01-06T12:15:35;2.85;;;2.75;;
84672;SDS011;74899;42.256;23.284;2024-01-06T12:18:07;4.55;;;4.20;;
84672;SDS011;74899;42.256;23.284;2024-01-06T12:20:33;3.45;;;3.25;;
84672;SDS011;74899;42.256;23.284;2024-01-06T12:22:59;3.85;;;3.17;;
84672;SDS011;74899;42.256;23.284;2024-01-06T12:25:27;7.68;;;5.00;;
84672;SDS011;74899;42.256;23.284;2024-01-06T12:27:54;45.50;;;19.02;;
84672;SDS011;74899;42.256;23.284;2024-01-06T12:30:26;13.95;;;9.23;;
84672;SDS011;74899;42.256;23.284;2024-01-06T12:32:58;5.03;;;4.65;;
84672;SDS011;74899;42.256;23.284;2024-01-06T12:35:28;14.57;;;9.45;;
84672;SDS011;74899;42.256;23.284;2024-01-06T12:37:54;12.02;;;8.05;;
84672;SDS011;74899;42.256;23.284;2024-01-06T12:40:21;218.70;;;57.88;;
84672;SDS011;74899;42.256;23.284;2024-01-06T12:42:47;40.15;;;16.10;;
84672;SDS011;74899;42.256;23.284;2024-01-06T12:45:13;23.20;;;11.57;;
84672;SDS011;74899;42.256;23.284;2024-01-06T12:47:41;16.52;;;7.97;;
84672;SDS011;74899;42.256;23.284;2024-01-06T12:50:09;5.28;;;4.75;;
84672;SDS011;74899;42.256;23.284;2024-01-06T12:52:35;8.32;;;4.82;;
84672;SDS011;74899;42.256;23.284;2024-01-06T12:55:04;5.45;;;4.95;;
84672;SDS011;74899;42.256;23.284;2024-01-06T12:57:31;7.20;;;5.47;;
84672;SDS011;74899;42.256;23.284;2024-01-06T12:59:58;12.43;;;6.65;;
84672;SDS011;74899;42.256;23.284;2024-01-06T13:02:24;11.13;;;5.70;;
84672;SDS011;74899;42.256;23.284;2024-01-06T13:04:52;11.18;;;5.50;;
84672;SDS011;74899;42.256;23.284;2024-01-06T13:07:20;20.10;;;8.00;;
84672;SDS011;74899;42.256;23.284;2024-01-06T13:09:47;45.05;;;17.58;;
84672;SDS011;74899;42.256;23.284;2024-01-06T13:12:14;8.43;;;5.45;;
84672;SDS011;74899;42.256;23.284;2024-01-06T13:14:44;8.20;;;5.05;;
84672;SDS011;74899;42.256;23.284;2024-01-06T13:17:12;15.85;;;10.52;;
84672;SDS011;74899;42.256;23.284;2024-01-06T13:19:42;9.85;;;6.35;;
84672;SDS011;74899;42.256;23.284;2024-01-06T13:22:08;10.90;;;6.20;;
84672;SDS011;74899;42.256;23.284;2024-01-06T13:24:36;25.65;;;10.07;;
84672;SDS011;74899;42.256;23.284;2024-01-06T13:27:05;4.50;;;3.10;;
84672;SDS011;74899;42.256;23.284;2024-01-06T13:32:00;5.30;;;3.53;;
84672;SDS011;74899;42.256;23.284;2024-01-06T13:34:30;11.48;;;6.38;;
84672;SDS011;74899;42.256;23.284;2024-01-06T13:36:56;5.03;;;4.53;;
84672;SDS011;74899;42.256;23.284;2024-01-06T13:39:22;20.95;;;10.02;;
84672;SDS011;74899;42.256;23.284;2024-01-06T13:41:49;4.72;;;4.32;;
84672;SDS011;74899;42.256;23.284;2024-01-06T13:44:16;6.65;;;5.88;;
84672;SDS011;74899;42.256;23.284;2024-01-06T13:46:43;3.80;;;3.47;;
84672;SDS011;74899;42.256;23.284;2024-01-06T13:49:10;3.80;;;3.50;;
84672;SDS011;74899;42.256;23.284;2024-01-06T13:51:38;5.40;;;3.45;;
84672;SDS011;74899;42.256;23.284;2024-01-06T13:54:10;16.27;;;8.38;;
84672;SDS011;74899;42.256;23.284;2024-01-06T13:56:37;20.23;;;9.88;;
84672;SDS011;74899;42.256;23.284;2024-01-06T13:59:03;32.22;;;11.52;;
84672;SDS011;74899;42.256;23.284;2024-01-06T14:01:30;27.45;;;12.93;;
84672;SDS011;74899;42.256;23.284;2024-01-06T14:03:57;44.90;;;14.98;;
84672;SDS011;74899;42.256;23.284;2024-01-06T14:06:26;21.42;;;11.73;;
84672;SDS011;74899;42.256;23.284;2024-01-06T14:08:59;27.50;;;11.07;;
84672;SDS011;74899;42.256;23.284;2024-01-06T14:11:25;60.22;;;26.17;;
84672;SDS011;74899;42.256;23.284;2024-01-06T14:13:52;49.03;;;19.15;;
84672;SDS011;74899;42.256;23.284;2024-01-06T14:16:18;37.08;;;15.77;;
84672;SDS011;74899;42.256;23.284;2024-01-06T14:18:46;29.58;;;14.25;;
84672;SDS011;74899;42.256;23.284;2024-01-06T14:21:13;10.45;;;7.40;;
84672;SDS011;74899;42.256;23.284;2024-01-06T14:23:45;11.60;;;7.13;;